Flight Track Log - Related Links

Times and Time Zones

All times are in EST time to prevent confusion due to time zone crossing. See the N969Q flight status page for this flight to view local times or setup timezone preferences in your user account.

Time Position Orientation Groundspeed Altitude Reporting Facility
EST Latitude Longitude Course Direction KTS MPH feet Rate Location/Type
Sun 08:07:16 AM 41.2625 -81.2756 118° Southeast 129 148 4,800  Level Cleveland Center
Sun 08:07:19 AM 41.2619 -81.2742 118° Southeast 125 144 4,700 1,082 Descending Cleveland Center
Sun 08:08:17 AM 41.2861 -81.3156 308° West 144 166 5,900 1,082 Climbing Cleveland Center
Sun 08:08:20 AM 41.2853 -81.3150 153° Southeast 134 154 5,800 800 Descending Cleveland Center
Sun 08:09:17 AM 41.3075 -81.3578 305° West 150 173 6,700 787 Climbing Cleveland Center
Sun 08:09:21 AM 41.3075 -81.3569 90° East 137 158 6,600  Descending Cleveland Center
Sun 08:10:18 AM 41.3347 -81.4064 306° West 176 203 6,700  Climbing Cleveland Center
Sun 08:10:22 AM 41.3347 -81.4033 90° East 151 174 6,600 -98 Descending Cleveland Center
Sun 08:11:19 AM 41.3617 -81.4581 303° West 171 197 6,600 -98 Level Cleveland Center
Sun 08:11:23 AM 41.3619 -81.4581 360° North 171 197 6,500  Descending Cleveland Center
Sun 08:12:19 AM 41.3906 -81.5100 306° West 174 200 6,600  Climbing Cleveland Center
Sun 08:12:24 AM 41.3894 -81.5092 151° Southeast 170 196 6,500  Descending Cleveland Center
Sun 08:13:20 AM 41.4156 -81.5614 304° West 170 196 6,600  Climbing Cleveland Center
Sun 08:13:24 AM 41.4158 -81.5606 66° East 168 193 6,500  Descending Cleveland Center
Sun 08:14:20 AM 41.4442 -81.6161 304° West 170 196 6,600  Climbing Cleveland Center
Sun 08:14:25 AM 41.4414 -81.6128 138° Southeast 168 193 6,500  Descending Cleveland Center
Sun 08:15:21 AM 41.4733 -81.6653 309° West 170 196 6,600  Climbing Cleveland Center
Sun 08:15:26 AM 41.4692 -81.6622 151° Southeast 167 192 6,500  Descending Cleveland Center
Sun 08:16:22 AM 41.5006 -81.7117 310° West 165 190 6,600  Climbing Cleveland Center
Sun 08:16:27 AM 41.4989 -81.7100 143° Southeast 166 191 6,500  Descending Cleveland Center
Sun 08:17:22 AM 41.5297 -81.7583 310° West 162 186 6,600  Climbing Cleveland Center
Sun 08:17:28 AM 41.5281 -81.7567 143° Southeast 164 189 6,500 -90 Descending Cleveland Center
Sun 08:18:29 AM 41.5583 -81.8017 312° West 163 188 6,500  Level Cleveland Center
Sun 08:19:30 AM 41.5889 -81.8467 312° West 162 186 6,500  Level Cleveland Center
Sun 08:20:31 AM 41.6192 -81.8906 313° West 161 185 6,500 52 Level Cleveland Center
Sun 08:21:25 AM 41.6536 -81.9408 313° West 169 194 6,600  Climbing Cleveland Center
Sun 08:21:32 AM 41.6572 -81.9433 333° Northwest 164 189 6,500 -88 Descending Cleveland Center
Sun 08:22:33 AM 41.6911 -81.9886 315° West 168 193 6,500  Level Cleveland Center
Sun 08:23:33 AM 41.7247 -82.0328 316° Northwest 169 194 6,500  Level Cleveland Center
Sun 08:24:34 AM 41.7578 -82.0775 315° West 168 193 6,500  Level Cleveland Center
Sun 08:25:35 AM 41.7906 -82.1225 314° West 167 192 6,500  Level Cleveland Center
Sun 08:26:36 AM 41.8228 -82.1689 313° West 168 193 6,500  Level Cleveland Center
Sun 08:27:37 AM 41.8533 -82.2181 310° West 172 198 6,500  Level Cleveland Center
Sun 08:28:38 AM 41.8833 -82.2644 311° West 169 194 6,500  Level Cleveland Center
Sun 08:29:39 AM 41.9144 -82.3122 311° West 169 194 6,500  Level Cleveland Center
Sun 08:30:37 AM 41.9472 -82.3628 311° West 169 194 6,500 98 Level Cleveland Center
Sun 08:30:40 AM 41.9444 -82.3597 141° Southeast 168 193 6,600  Climbing Cleveland Center
Sun 08:31:38 AM 41.9753 -82.4111 309° West 169 194 6,500  Descending Cleveland Center
Sun 08:31:41 AM 41.9731 -82.4094 151° Southeast 167 192 6,600  Climbing Cleveland Center
Sun 08:32:39 AM 42.0053 -82.4600 311° West 169 194 6,500  Descending Cleveland Center
Sun 08:32:42 AM 42.0039 -82.4572 124° Southeast 169 194 6,600 94 Climbing Cleveland Center
Sun 08:33:43 AM 42.0328 -82.5056 309° West 168 193 6,600  Level Cleveland Center
Sun 08:33:45 AM 42.0411 -82.5150 320° Northwest 169 194 6,600 98 Level Cleveland Center
Sun 08:34:44 AM 42.0639 -82.5539 308° West 170 196 6,700  Climbing Cleveland Center
Sun 08:34:46 AM 42.0711 -82.5639 314° West 169 194 6,600  Descending Cleveland Center
Sun 08:35:45 AM 42.0933 -82.6025 308° West 168 193 6,700  Climbing Cleveland Center
Sun 08:35:47 AM 42.0992 -82.6122 309° West 169 194 6,600 -107 Descending Cleveland Center
Sun 08:36:41 AM 42.1272 -82.6581 310° West 171 197 6,600 100 Level Cleveland Center
Sun 08:36:47 AM 42.1292 -82.6625 301° West 171 197 6,700  Climbing Cleveland Center
Sun 08:37:42 AM 42.1592 -82.7072 312° West 170 196 6,600  Descending Cleveland Center
Sun 08:37:48 AM 42.1594 -82.7108 276° West 171 197 6,700  Climbing Cleveland Center
Sun 08:38:43 AM 42.1872 -82.7561 310° West 170 196 6,600  Descending Cleveland Center
Sun 08:38:49 AM 42.1892 -82.7600 304° West 170 196 6,700  Climbing Cleveland Center
Sun 08:39:44 AM 42.2172 -82.8050 310° West 171 197 6,600  Descending Cleveland Center
Sun 08:39:50 AM 42.2197 -82.8081 318° Northwest 169 194 6,700  Climbing Cleveland Center
Sun 08:40:44 AM 42.2492 -82.8544 311° West 171 197 6,600  Descending Cleveland Center
Sun 08:40:51 AM 42.2500 -82.8581 287° West 171 197 6,700 -98 Climbing Cleveland Center
Sun 08:41:45 AM 42.2806 -82.9094 309° West 172 198 6,500 -98 Descending Cleveland Center
Sun 08:41:52 AM 42.2808 -82.9067 82° East 171 197 6,600 98 Climbing Cleveland Center
Sun 08:42:46 AM 42.3125 -82.9589 309° West 172 198 6,600 98 Level Cleveland Center
Sun 08:42:53 AM 42.3117 -82.9561 112° Southeast 172 198 6,700  Climbing Cleveland Center
Sun 08:43:47 AM 42.3428 -83.0053 311° West 173 199 6,600  Descending Cleveland Center
Sun 08:43:54 AM 42.3428 -83.0056 270° West 174 200 6,700  Climbing Cleveland Center
Sun 08:44:48 AM 42.3744 -83.0547 311° West 173 199 6,600  Descending Cleveland Center
Sun 08:44:55 AM 42.3744 -83.0542 90° East 174 200 6,700  Climbing Cleveland Center
Sun 08:45:49 AM 42.4083 -83.1075 311° West 174 200 6,600  Descending Cleveland Center
Sun 08:45:56 AM 42.4119 -83.1131 311° West 174 200 6,700  Climbing Cleveland Center
Sun 08:46:50 AM 42.4403 -83.1569 311° West 173 199 6,600  Descending Cleveland Center
Sun 08:46:57 AM 42.4431 -83.1619 307° West 173 199 6,700  Climbing Cleveland Center
Sun 08:47:51 AM 42.4742 -83.2069 313° West 172 198 6,600  Descending Cleveland Center
Sun 08:47:58 AM 42.4753 -83.2103 294° West 174 200 6,700  Climbing Cleveland Center
Sun 08:48:52 AM 42.5039 -83.2564 310° West 174 200 6,600 -97 Descending Cleveland Center
Sun 08:49:00 AM 42.5061 -83.2597 312° West 173 199 6,600  Level Cleveland Center
Sun 08:50:01 AM 42.5364 -83.3089 310° West 172 198 6,600 -246 Level Cleveland Center
Sun 08:51:02 AM 42.5686 -83.3619 310° West 179 206 6,100 -531 Descending Cleveland Center
Sun 08:51:54 AM 42.6003 -83.4175 308° West 186 214 5,600 -393 Descending Cleveland Center
Sun 08:52:03 AM 42.6008 -83.4153 71° East 184 212 5,700 -590 Climbing Cleveland Center
Sun 08:52:55 AM 42.6317 -83.4703 307° West 185 213 5,000 -590 Descending Cleveland Center
Sun 08:53:04 AM 42.6328 -83.4697 20° North 185 213 5,100 -492 Climbing Cleveland Center
Sun 08:53:56 AM 42.6650 -83.5289 307° West 188 216 4,500 -968 Descending Cleveland Center
Sun 08:54:06 AM 42.6706 -83.5369 313° West 186 214 4,100 -761 Descending Cleveland Center
Sun 08:55:07 AM 42.7047 -83.5917 310° West 187 215 3,600 -492 Descending Cleveland Center
Sun 08:56:08 AM 42.7344 -83.6408 309° West 183 211 3,100 -492 Descending Cleveland Center
Sun 08:58:00 AM 42.7801 -83.7301 324° Northwest  Level FlightAware Approximate
Sun 09:05:00 AM 42.8000 -83.7667 270° West  Level FlightAware Approximate
Sun 09:06:00 AM 42.8076 -83.7695 270° West  Level Estimated

Login

Don't have an account? Register now (free) for customized features, flight alerts, and more!